createdAt,value
2019-03-25T00:02:12.018Z,8.43
2019-03-25T00:04:41.156Z,9.13
2019-03-25T00:07:10.141Z,10.77
2019-03-25T00:09:39.034Z,6.03
2019-03-25T00:12:08.014Z,7.57
2019-03-25T00:14:37.135Z,8.57
2019-03-25T00:17:06.605Z,9.67
2019-03-25T00:19:35.672Z,6.87
2019-03-25T00:22:04.835Z,15.60
2019-03-25T00:24:38.748Z,8.80
2019-03-25T00:27:04.575Z,10.43
2019-03-25T00:29:33.931Z,13.43
2019-03-25T00:32:03.133Z,13.83
2019-03-25T00:34:32.008Z,8.77
2019-03-25T00:37:01.825Z,11.77
2019-03-25T00:39:30.844Z,10.50
2019-03-25T00:42:00.899Z,10.17
2019-03-25T00:44:30.150Z,10.73
2019-03-25T00:46:59.128Z,13.63
2019-03-25T00:49:28.049Z,18.53
2019-03-25T00:51:57.282Z,9.03
2019-03-25T00:54:26.353Z,13.00
2019-03-25T00:56:56.799Z,11.73
2019-03-25T00:59:25.745Z,10.33
2019-03-25T01:01:54.664Z,8.83
2019-03-25T01:04:23.709Z,9.40
2019-03-25T01:06:52.633Z,7.33
2019-03-25T01:09:21.758Z,6.17
2019-03-25T01:11:51.540Z,6.37
2019-03-25T01:14:20.464Z,6.77
2019-03-25T01:16:49.560Z,12.60
2019-03-25T01:19:18.474Z,12.67
2019-03-25T01:21:47.416Z,14.97
2019-03-25T01:24:16.482Z,8.77
2019-03-25T01:26:45.715Z,11.20
2019-03-25T01:29:15.027Z,11.63
2019-03-25T01:31:44.246Z,11.00
2019-03-25T01:34:13.253Z,14.30
2019-03-25T01:36:42.157Z,10.60
2019-03-25T01:39:11.054Z,7.47
2019-03-25T01:41:40.045Z,10.37
2019-03-25T01:44:09.327Z,14.03
2019-03-25T01:46:38.467Z,13.53
2019-03-25T01:49:07.568Z,10.97
2019-03-25T01:51:36.510Z,9.63
2019-03-25T01:54:05.411Z,5.17
2019-03-25T01:56:35.186Z,8.60
2019-03-25T01:59:04.142Z,5.27
2019-03-25T02:01:33.183Z,6.40
2019-03-25T02:04:02.238Z,3.93
2019-03-25T02:06:31.177Z,3.10
2019-03-25T02:09:00.236Z,1.70
2019-03-25T02:11:29.264Z,3.30
2019-03-25T02:13:59.444Z,1.37
2019-03-25T02:16:28.430Z,2.73
2019-03-25T02:18:57.416Z,1.43
2019-03-25T02:21:26.435Z,1.50
2019-03-25T02:23:55.403Z,3.50
2019-03-25T02:26:24.406Z,4.20
2019-03-25T02:28:53.366Z,1.37
2019-03-25T02:31:22.474Z,2.97
2019-03-25T02:33:51.429Z,1.80
2019-03-25T02:36:20.411Z,2.20
2019-03-25T02:38:49.796Z,0.87
2019-03-25T02:41:19.238Z,1.23
2019-03-25T02:43:48.722Z,3.47
2019-03-25T02:46:17.689Z,0.70
2019-03-25T02:48:47.522Z,1.17
2019-03-25T02:51:16.534Z,0.77
2019-03-25T02:53:45.543Z,0.70
2019-03-25T02:56:14.491Z,1.57
2019-03-25T02:58:43.511Z,1.50
2019-03-25T03:01:12.599Z,3.33
2019-03-25T03:03:41.520Z,2.43
2019-03-25T03:06:10.464Z,2.00
2019-03-25T03:08:39.701Z,3.53
2019-03-25T03:11:08.643Z,1.10
2019-03-25T03:13:37.716Z,1.80
2019-03-25T03:16:06.815Z,2.67
2019-03-25T03:18:35.748Z,3.33
2019-03-25T03:21:04.767Z,3.40
2019-03-25T03:23:33.675Z,4.30
2019-03-25T03:26:02.776Z,2.13
2019-03-25T03:28:31.773Z,2.67
2019-03-25T03:31:00.708Z,4.00
2019-03-25T03:33:30.045Z,3.57
2019-03-25T03:35:58.951Z,3.30
2019-03-25T03:38:27.937Z,1.73
2019-03-25T03:40:56.848Z,2.30
2019-03-25T03:43:25.798Z,5.40
2019-03-25T03:45:55.077Z,4.93
2019-03-25T03:48:24.035Z,1.17
2019-03-25T03:50:54.181Z,4.60
2019-03-25T03:53:23.167Z,1.17
2019-03-25T03:55:53.455Z,3.20
2019-03-25T03:58:25.033Z,1.97
2019-03-25T04:00:54.097Z,1.43
2019-03-25T04:03:23.087Z,1.43
2019-03-25T04:05:52.078Z,1.33
2019-03-25T04:08:20.995Z,3.07
2019-03-25T04:10:49.934Z,3.07
2019-03-25T04:13:18.986Z,2.77
2019-03-25T04:15:48.076Z,1.87
2019-03-25T04:18:18.006Z,3.60
2019-03-25T04:20:46.945Z,3.80
2019-03-25T04:23:15.849Z,1.67
2019-03-25T04:25:44.866Z,3.43
2019-03-25T04:28:13.861Z,3.20
2019-03-25T04:30:42.905Z,2.73
2019-03-25T04:33:11.900Z,3.43
2019-03-25T04:35:40.773Z,3.63
2019-03-25T04:38:09.865Z,3.20
2019-03-25T04:40:38.794Z,3.67
2019-03-25T04:43:07.850Z,2.73
2019-03-25T04:45:36.731Z,0.60
2019-03-25T04:48:05.658Z,4.47
2019-03-25T04:50:34.913Z,4.83
2019-03-25T04:53:04.294Z,4.13
2019-03-25T04:55:33.273Z,2.97
2019-03-25T04:58:02.598Z,2.73
2019-03-25T05:00:34.883Z,1.63
2019-03-25T05:03:04.282Z,2.90
2019-03-25T05:05:35.861Z,3.27
2019-03-25T05:08:04.354Z,4.13
2019-03-25T05:10:33.575Z,8.13
2019-03-25T05:13:02.819Z,5.03
2019-03-25T05:15:32.077Z,3.60
2019-03-25T05:18:01.342Z,3.93
2019-03-25T05:20:30.229Z,4.27
2019-03-25T05:22:59.146Z,5.20
2019-03-25T05:25:28.285Z,5.20
2019-03-25T05:28:00.527Z,6.53
2019-03-25T05:30:29.483Z,2.87
2019-03-25T05:32:58.486Z,5.33
2019-03-25T05:35:27.409Z,5.97
2019-03-25T05:37:56.574Z,3.70
2019-03-25T05:40:25.597Z,6.70
2019-03-25T05:42:54.513Z,9.73
2019-03-25T05:45:23.452Z,4.73
2019-03-25T05:47:53.704Z,6.87
2019-03-25T05:50:22.683Z,4.87
2019-03-25T05:52:52.225Z,3.03
2019-03-25T05:55:21.113Z,5.30
2019-03-25T05:57:50.068Z,7.37
2019-03-25T06:00:21.220Z,6.33
2019-03-25T06:02:50.670Z,9.23
2019-03-25T06:05:19.955Z,3.93
2019-03-25T06:07:49.077Z,5.17
2019-03-25T06:10:18.009Z,2.87
2019-03-25T06:12:48.575Z,4.67
2019-03-25T06:15:17.887Z,3.17
2019-03-25T06:17:46.890Z,4.23
2019-03-25T06:20:16.114Z,5.50
2019-03-25T06:22:45.106Z,7.70
2019-03-25T06:25:14.080Z,8.30
2019-03-25T06:27:45.170Z,7.07
2019-03-25T06:30:15.229Z,6.13
2019-03-25T06:32:44.474Z,4.03
2019-03-25T06:35:13.543Z,4.37
2019-03-25T06:37:42.435Z,2.23
2019-03-25T06:40:12.155Z,6.77
2019-03-25T06:42:41.659Z,8.60
2019-03-25T06:45:12.996Z,4.27
2019-03-25T06:47:41.926Z,7.03
2019-03-25T06:50:11.422Z,6.13
2019-03-25T06:52:40.825Z,6.77
2019-03-25T06:55:10.131Z,3.37
2019-03-25T06:57:39.172Z,6.27
2019-03-25T07:00:09.224Z,6.53
2019-03-25T07:02:38.377Z,6.87
2019-03-25T07:05:07.901Z,7.20
2019-03-25T07:07:36.918Z,7.07
2019-03-25T07:10:07.408Z,5.03
2019-03-25T07:12:37.250Z,7.00
2019-03-25T07:15:07.635Z,5.03
2019-03-25T07:17:36.607Z,3.93
2019-03-25T07:20:06.510Z,3.53
2019-03-25T07:22:35.380Z,2.97
2019-03-25T07:25:04.753Z,1.67
2019-03-25T07:27:37.043Z,6.00
2019-03-25T07:30:06.656Z,2.63
2019-03-25T07:32:35.567Z,4.73
2019-03-25T07:35:05.204Z,3.83
2019-03-25T07:37:34.078Z,5.17
2019-03-25T07:40:03.477Z,4.07
2019-03-25T07:42:32.420Z,2.87
2019-03-25T07:45:01.372Z,2.57
2019-03-25T07:47:30.256Z,2.57
2019-03-25T07:49:59.325Z,3.77
2019-03-25T07:52:28.338Z,3.87
2019-03-25T07:54:58.841Z,4.97
2019-03-25T07:57:28.676Z,4.43
2019-03-25T07:59:57.671Z,2.47
2019-03-25T08:02:26.699Z,6.90
2019-03-25T08:04:55.776Z,4.73
2019-03-25T08:07:24.792Z,2.27
2019-03-25T08:09:53.758Z,4.00
2019-03-25T08:12:22.738Z,3.13
2019-03-25T08:14:51.657Z,9.37
2019-03-25T08:17:20.714Z,4.93
2019-03-25T08:19:50.084Z,4.03
2019-03-25T08:22:18.964Z,4.60
2019-03-25T08:24:48.143Z,3.40
2019-03-25T08:27:17.039Z,5.73
2019-03-25T08:29:46.012Z,4.83
2019-03-25T08:32:14.994Z,2.77
2019-03-25T08:34:43.949Z,4.43
2019-03-25T08:37:13.758Z,4.20
2019-03-25T08:39:43.289Z,4.03
2019-03-25T08:42:12.296Z,2.23
2019-03-25T08:44:41.379Z,3.53
2019-03-25T08:47:11.053Z,4.63
2019-03-25T08:49:40.092Z,1.77
2019-03-25T08:52:09.302Z,1.87
2019-03-25T08:54:38.225Z,2.30
2019-03-25T08:57:07.257Z,4.87
2019-03-25T08:59:36.413Z,2.10
2019-03-25T09:02:05.867Z,1.07
2019-03-25T09:04:34.765Z,0.63
2019-03-25T09:07:03.831Z,3.33
2019-03-25T09:09:32.817Z,3.30
2019-03-25T09:12:01.742Z,2.67
2019-03-25T09:14:30.950Z,0.87
2019-03-25T09:17:00.649Z,5.43
2019-03-25T09:19:31.237Z,1.23
2019-03-25T09:22:01.546Z,1.83
2019-03-25T09:24:32.939Z,2.63
2019-03-25T09:27:01.491Z,1.90
2019-03-25T09:29:30.445Z,1.37
2019-03-25T09:31:59.868Z,0.50
2019-03-25T09:34:28.916Z,1.70
2019-03-25T09:36:57.822Z,2.50
2019-03-25T09:39:27.486Z,1.20
2019-03-25T09:41:56.496Z,3.27
2019-03-25T09:44:25.603Z,1.17
2019-03-25T09:46:54.503Z,3.87
2019-03-25T09:49:23.448Z,3.13
2019-03-25T09:51:53.428Z,4.33
2019-03-25T09:54:22.389Z,1.47
2019-03-25T09:56:51.342Z,3.77
2019-03-25T09:59:20.589Z,4.63
2019-03-25T10:01:49.590Z,2.33
2019-03-25T10:04:20.116Z,1.23
2019-03-25T10:06:49.201Z,5.03
2019-03-25T10:09:18.299Z,5.13
2019-03-25T10:11:47.178Z,4.37
2019-03-25T10:14:16.650Z,2.63
2019-03-25T10:16:45.582Z,3.20
2019-03-25T10:19:14.898Z,3.60
2019-03-25T10:21:44.321Z,3.43
2019-03-25T10:24:13.536Z,3.27
2019-03-25T10:26:44.679Z,6.17
2019-03-25T10:29:13.605Z,0.60
2019-03-25T10:31:42.652Z,2.23
2019-03-25T10:34:11.595Z,3.37
2019-03-25T10:36:40.640Z,1.50
2019-03-25T10:39:10.133Z,3.97
2019-03-25T10:41:39.058Z,2.57
2019-03-25T10:44:09.461Z,8.30
2019-03-25T10:46:39.004Z,9.27
2019-03-25T10:49:07.946Z,6.07
2019-03-25T10:51:37.305Z,8.80
2019-03-25T10:54:06.253Z,7.20
2019-03-25T10:56:35.261Z,5.00
2019-03-25T10:59:04.323Z,6.03
2019-03-25T11:01:33.291Z,8.27
2019-03-25T11:04:02.401Z,8.47
2019-03-25T11:06:31.286Z,9.13
2019-03-25T11:09:00.258Z,7.17
2019-03-25T11:11:29.193Z,16.07
2019-03-25T11:13:58.210Z,7.43
2019-03-25T11:16:27.110Z,6.40
2019-03-25T11:18:56.024Z,6.53
2019-03-25T11:21:25.229Z,1.77
2019-03-25T11:23:54.168Z,8.30
2019-03-25T11:26:23.129Z,6.13
2019-03-25T11:28:52.423Z,7.60
2019-03-25T11:31:21.367Z,9.17
2019-03-25T11:33:50.476Z,6.10
2019-03-25T11:36:19.891Z,3.53
2019-03-25T11:38:48.770Z,9.93
2019-03-25T11:41:17.806Z,8.43
2019-03-25T11:43:46.682Z,5.03
2019-03-25T11:46:15.604Z,7.47
2019-03-25T11:48:44.687Z,13.23
2019-03-25T11:51:13.571Z,7.27
2019-03-25T11:53:42.632Z,7.13
2019-03-25T11:56:11.740Z,2.23
2019-03-25T11:58:40.687Z,5.90
2019-03-25T12:01:09.951Z,7.87
2019-03-25T12:03:38.894Z,5.53
2019-03-25T12:06:08.173Z,6.87
2019-03-25T12:08:37.330Z,10.73
2019-03-25T12:11:06.520Z,4.47
2019-03-25T12:13:35.544Z,6.87
2019-03-25T12:16:04.606Z,5.00
2019-03-25T12:18:33.642Z,4.53
2019-03-25T12:21:03.127Z,4.30
2019-03-25T12:23:32.233Z,8.30
2019-03-25T12:26:01.323Z,5.60
2019-03-25T12:28:30.269Z,7.80
2019-03-25T12:30:59.273Z,3.60
2019-03-25T12:33:28.195Z,5.37
2019-03-25T12:35:57.330Z,5.17
2019-03-25T12:38:26.464Z,4.73
2019-03-25T12:40:55.783Z,6.60
2019-03-25T12:43:24.999Z,4.77
2019-03-25T12:45:54.039Z,5.67
2019-03-25T12:48:23.323Z,9.87
2019-03-25T12:50:52.553Z,15.87
2019-03-25T12:53:21.410Z,11.80
2019-03-25T12:55:51.261Z,10.03
2019-03-25T12:58:20.441Z,7.67
2019-03-25T13:00:49.469Z,8.03
2019-03-25T13:03:18.759Z,4.00
2019-03-25T13:05:47.968Z,4.90
2019-03-25T13:08:17.188Z,0.80
2019-03-25T13:10:46.153Z,0.30
2019-03-25T13:13:15.388Z,1.33
2019-03-25T13:15:44.591Z,2.47
2019-03-25T13:18:13.502Z,1.20
2019-03-25T13:20:42.431Z,1.17
2019-03-25T13:23:11.367Z,1.33
2019-03-25T13:25:40.334Z,2.73
2019-03-25T13:28:09.339Z,2.93
2019-03-25T13:30:38.545Z,3.87
2019-03-25T13:33:08.147Z,3.73
2019-03-25T13:35:38.649Z,2.30
2019-03-25T13:38:07.861Z,7.60
2019-03-25T13:40:36.922Z,4.90
2019-03-25T13:43:05.825Z,2.73
2019-03-25T13:45:34.742Z,2.37
2019-03-25T13:48:04.067Z,3.50
2019-03-25T13:50:33.139Z,0.83
2019-03-25T13:53:02.243Z,3.60
2019-03-25T13:55:33.614Z,3.53
2019-03-25T13:58:02.669Z,5.70
2019-03-25T14:00:37.298Z,6.80
2019-03-25T14:03:06.239Z,2.57
2019-03-25T14:05:36.336Z,4.70
2019-03-25T14:08:05.354Z,7.73
2019-03-25T14:10:34.272Z,6.90
2019-03-25T14:13:03.652Z,8.87
2019-03-25T14:15:32.607Z,5.37
2019-03-25T14:18:01.792Z,6.70
2019-03-25T14:20:30.732Z,3.97
2019-03-25T14:23:00.941Z,6.67
2019-03-25T14:25:29.893Z,2.90
2019-03-25T14:27:59.247Z,5.80
2019-03-25T14:30:28.333Z,9.47
2019-03-25T14:32:57.224Z,5.10
2019-03-25T14:35:26.198Z,14.27
2019-03-25T14:37:55.120Z,5.37
2019-03-25T14:40:25.610Z,9.83
2019-03-25T14:42:54.646Z,5.57
2019-03-25T14:45:26.706Z,11.80
2019-03-25T14:47:54.824Z,7.87
2019-03-25T14:50:23.728Z,10.43
2019-03-25T14:52:52.703Z,7.30
2019-03-25T14:55:21.640Z,10.00
2019-03-25T14:57:50.604Z,7.50
2019-03-25T15:00:25.020Z,9.47
2019-03-25T15:02:51.079Z,7.90
2019-03-25T15:05:19.983Z,13.57
2019-03-25T15:07:48.923Z,7.37
2019-03-25T15:10:18.067Z,12.43
2019-03-25T15:12:47.038Z,5.83
2019-03-25T15:15:16.506Z,6.63
2019-03-25T15:17:45.434Z,15.73
2019-03-25T15:20:14.854Z,11.87
2019-03-25T15:22:44.077Z,14.33
2019-03-25T15:25:14.314Z,11.87
2019-03-25T15:27:43.507Z,7.03
2019-03-25T15:30:12.758Z,7.33
2019-03-25T15:32:41.797Z,9.40
2019-03-25T15:35:11.666Z,6.13
2019-03-25T15:37:41.053Z,9.23
2019-03-25T15:40:13.135Z,8.80
2019-03-25T15:42:42.436Z,7.50
2019-03-25T15:45:11.580Z,8.27
2019-03-25T15:47:43.797Z,10.03
2019-03-25T15:50:12.564Z,15.47
2019-03-25T15:52:41.475Z,12.97
2019-03-25T15:55:12.019Z,4.10
2019-03-25T15:57:41.007Z,4.40
2019-03-25T16:00:15.825Z,5.10
2019-03-25T16:02:45.228Z,9.47
2019-03-25T16:05:15.446Z,3.07
2019-03-25T16:07:44.518Z,12.50
2019-03-25T16:10:17.255Z,9.13
2019-03-25T16:12:46.952Z,7.23
2019-03-25T16:15:39.417Z,9.07
2019-03-25T16:18:09.066Z,5.73
2019-03-25T16:20:38.445Z,2.03
2019-03-25T16:23:09.256Z,6.10
2019-03-25T16:25:38.527Z,7.20
2019-03-25T16:28:07.421Z,5.93
2019-03-25T16:30:36.666Z,7.97
2019-03-25T16:33:05.584Z,7.80
2019-03-25T16:35:34.588Z,6.60
2019-03-25T16:38:03.488Z,4.00
2019-03-25T16:40:32.405Z,7.27
2019-03-25T16:43:02.108Z,5.00
2019-03-25T16:45:31.145Z,6.50
2019-03-25T16:48:00.172Z,7.23
2019-03-25T16:50:29.811Z,6.73
2019-03-25T16:53:00.480Z,7.53
2019-03-25T16:55:29.429Z,5.33
2019-03-25T16:57:58.361Z,10.33
2019-03-25T17:00:28.237Z,5.90
2019-03-25T17:02:57.241Z,5.63
2019-03-25T17:05:26.134Z,3.83
2019-03-25T17:07:55.284Z,5.97
2019-03-25T17:10:24.240Z,5.83
2019-03-25T17:12:53.242Z,8.47
2019-03-25T17:15:22.132Z,5.77
2019-03-25T17:17:51.153Z,4.27
2019-03-25T17:20:20.216Z,9.17
2019-03-25T17:22:49.205Z,8.63
2019-03-25T17:25:18.164Z,4.20
2019-03-25T17:27:47.311Z,4.73
2019-03-25T17:30:17.347Z,4.07
2019-03-25T17:32:47.057Z,9.23
2019-03-25T17:35:15.954Z,6.57
2019-03-25T17:37:45.033Z,11.57
2019-03-25T17:40:14.505Z,10.17
2019-03-25T17:42:43.571Z,6.20
2019-03-25T17:45:13.906Z,7.33
2019-03-25T17:47:43.261Z,11.83
2019-03-25T17:50:12.628Z,13.80
2019-03-25T17:52:41.568Z,7.53
2019-03-25T17:55:11.584Z,9.77
2019-03-25T17:57:40.504Z,14.53
2019-03-25T18:00:11.249Z,16.60
2019-03-25T18:02:40.515Z,13.40
2019-03-25T18:05:10.031Z,9.73
2019-03-25T18:07:38.959Z,10.67
2019-03-25T18:10:08.245Z,11.30
2019-03-25T18:12:39.046Z,5.43
2019-03-25T18:15:13.073Z,10.40
2019-03-25T18:17:42.109Z,13.80
2019-03-25T18:20:18.625Z,15.53
2019-03-25T18:22:42.341Z,15.03
2019-03-25T18:25:13.285Z,16.37
2019-03-25T18:27:42.247Z,15.80
2019-03-25T18:30:11.557Z,19.90
2019-03-25T18:32:40.509Z,16.47
2019-03-25T18:35:14.614Z,13.40
2019-03-25T18:37:43.837Z,13.93
2019-03-25T18:40:12.953Z,22.10
2019-03-25T18:42:41.901Z,20.30
2019-03-25T18:45:10.865Z,17.50
2019-03-25T18:47:39.950Z,23.83
2019-03-25T18:50:09.308Z,13.63
2019-03-25T18:52:38.240Z,21.97
2019-03-25T18:55:07.921Z,16.07
2019-03-25T18:57:37.098Z,24.17
2019-03-25T19:00:06.298Z,19.90
2019-03-25T19:02:35.329Z,13.80
2019-03-25T19:05:04.430Z,14.57
2019-03-25T19:07:34.852Z,15.33
2019-03-25T19:10:03.948Z,15.17
2019-03-25T19:12:32.809Z,18.43
2019-03-25T19:15:03.081Z,15.37
2019-03-25T19:17:32.362Z,20.80
2019-03-25T19:20:01.320Z,21.80
2019-03-25T19:22:30.617Z,21.43
2019-03-25T19:24:59.579Z,18.30
2019-03-25T19:27:29.192Z,17.87
2019-03-25T19:29:58.754Z,24.37
2019-03-25T19:32:27.699Z,18.67
2019-03-25T19:34:56.682Z,22.00
2019-03-25T19:37:25.620Z,21.37
2019-03-25T19:39:54.686Z,17.00
2019-03-25T19:42:23.607Z,24.27
2019-03-25T19:44:52.531Z,21.93
2019-03-25T19:47:21.640Z,17.90
2019-03-25T19:49:50.990Z,21.97
2019-03-25T19:52:20.123Z,13.00
2019-03-25T19:54:49.063Z,18.20
2019-03-25T19:57:18.510Z,22.77
2019-03-25T19:59:47.655Z,23.80
2019-03-25T20:02:19.177Z,18.17
2019-03-25T20:04:47.860Z,25.30
2019-03-25T20:07:17.317Z,24.67
2019-03-25T20:09:47.401Z,22.13
2019-03-25T20:12:16.396Z,19.67
2019-03-25T20:14:45.374Z,26.63
2019-03-25T20:17:14.723Z,16.37
2019-03-25T20:19:43.648Z,15.93
2019-03-25T20:22:13.161Z,20.23
2019-03-25T20:24:43.040Z,16.63
2019-03-25T20:27:12.368Z,25.23
2019-03-25T20:29:41.753Z,23.10
2019-03-25T20:32:10.813Z,17.17
2019-03-25T20:34:39.914Z,19.63
2019-03-25T20:37:08.848Z,22.33
2019-03-25T20:39:37.866Z,19.43
2019-03-25T20:42:07.295Z,14.13
2019-03-25T20:44:36.268Z,20.40
2019-03-25T20:47:05.516Z,21.87
2019-03-25T20:49:34.849Z,26.50
2019-03-25T20:52:04.668Z,20.60
2019-03-25T20:54:33.693Z,18.70
2019-03-25T20:57:02.875Z,17.47
2019-03-25T20:59:31.880Z,16.37
2019-03-25T21:02:01.341Z,17.67
2019-03-25T21:04:30.389Z,18.43
2019-03-25T21:06:59.322Z,16.53
2019-03-25T21:09:28.342Z,15.13
2019-03-25T21:11:57.296Z,16.23
2019-03-25T21:14:26.755Z,17.47
2019-03-25T21:16:55.678Z,18.57
2019-03-25T21:19:24.726Z,20.47
2019-03-25T21:21:53.943Z,16.27
2019-03-25T21:24:23.190Z,19.67
2019-03-25T21:26:52.198Z,16.30
2019-03-25T21:29:21.376Z,17.83
2019-03-25T21:31:50.812Z,15.30
2019-03-25T21:34:20.036Z,17.00
2019-03-25T21:36:49.024Z,16.20
2019-03-25T21:39:18.006Z,17.97
2019-03-25T21:41:47.583Z,18.57
2019-03-25T21:44:17.307Z,14.27
2019-03-25T21:46:46.954Z,12.47
2019-03-25T21:49:16.980Z,13.17
2019-03-25T21:51:46.043Z,15.23
2019-03-25T21:54:14.989Z,15.97
2019-03-25T21:56:44.559Z,15.17
2019-03-25T21:59:13.482Z,16.63
2019-03-25T22:01:42.491Z,15.30
2019-03-25T22:04:11.407Z,14.43
2019-03-25T22:06:40.912Z,17.80
2019-03-25T22:09:10.802Z,14.33
2019-03-25T22:11:40.382Z,16.00
2019-03-25T22:14:09.334Z,19.47
2019-03-25T22:16:38.714Z,12.03
2019-03-25T22:19:07.743Z,20.77
2019-03-25T22:21:36.944Z,15.03
2019-03-25T22:24:06.011Z,14.20
2019-03-25T22:26:35.044Z,12.87
2019-03-25T22:29:04.039Z,16.03
2019-03-25T22:31:33.037Z,10.57
2019-03-25T22:34:02.287Z,14.00
2019-03-25T22:36:31.419Z,10.73
2019-03-25T22:39:01.104Z,18.63
2019-03-25T22:41:30.731Z,18.57
2019-03-25T22:43:59.799Z,15.63
2019-03-25T22:46:29.034Z,14.73
2019-03-25T22:48:57.937Z,14.30
2019-03-25T22:51:26.852Z,11.07
2019-03-25T22:53:55.791Z,10.03
2019-03-25T22:56:24.898Z,10.20
2019-03-25T22:58:53.798Z,11.80
2019-03-25T23:01:22.879Z,10.20
2019-03-25T23:03:51.792Z,14.37
2019-03-25T23:06:20.701Z,13.30
2019-03-25T23:08:49.691Z,8.67
2019-03-25T23:11:18.664Z,9.23
2019-03-25T23:13:47.569Z,14.67
2019-03-25T23:16:16.529Z,8.33
2019-03-25T23:18:45.438Z,12.37
2019-03-25T23:21:14.363Z,13.63
2019-03-25T23:23:43.414Z,11.93
2019-03-25T23:26:12.321Z,17.77
2019-03-25T23:28:41.548Z,11.63
2019-03-25T23:31:10.570Z,10.67
2019-03-25T23:33:51.660Z,17.70
2019-03-25T23:36:10.338Z,16.97
2019-03-25T23:38:40.040Z,14.00
2019-03-25T23:41:09.295Z,16.67
2019-03-25T23:43:38.172Z,15.20
2019-03-25T23:46:07.177Z,14.23
2019-03-25T23:48:36.073Z,19.53
2019-03-25T23:51:05.139Z,15.87
2019-03-25T23:53:36.814Z,18.17
2019-03-25T23:56:05.881Z,12.63
2019-03-25T23:58:34.869Z,10.17
